Pagina principale
METAR-TAF:

METAR-TAF

Aeroporti :

Aeroporto di Palermo-Punta Raisi

Palermo, Italia

latitudine: 38-11N, longitudine: 013-06E, altezza: 21 m

Osservazione

Il bollettino è stato emesso 25 minuti fa, alle 09:20 UTC
Vento 3 kt da ovest/sud-ovest
Temperature 23°C
Umidità 78%
Pressione 1014 hPa
Visibilità 10 km o più
nessuna nube inferiore a 1500 m e nessun cumulonembo

METAR: LICJ 170920Z 25003KT CAVOK 23/19 Q1014

Ora: 11:45 (09:45 UTC)

Previsione

Il bollettino è stato emesso 4 ore e 45 minuti fa, alle 05:00 UTC
Previsione valida dal 17 alle 06 UTC al 18 alle 06 UTC
Vento 12 kt da sud/sud-ovest
Visibilità 10 km o più
Nubi sparse ad un'altezza di 3000 ft

TAF: LICJ 170500Z 1706/1806 20012KT 9999 SCT030

Osservazioni e previsioni meteorologiche di più di 4000 aeroporti (messaggi METAR e TAF).

Le stazioni disponibili sono rappresentate dai dischi gialli e rossi sulla carta.

Puntare il mouse per vedere il nome della stazione.

Clicca sopra per visualizzare le osservazioni e previsioni meteorologiche.

Per cambiare la mappa : fare clic sui pulsanti verdi con una croce nera per ingrandire, il pulsante verde con un trattino per diminuire, o sulla freccia verde per le mappe adiacenti.


METAR-TAF: